createdAt,value
2023-09-27T00:00:07.333Z,20.20
2023-09-27T00:02:34.143Z,20.55
2023-09-27T00:05:01.995Z,19.88
2023-09-27T00:07:29.507Z,22.38
2023-09-27T00:09:59.463Z,19.20
2023-09-27T00:12:26.282Z,21.77
2023-09-27T00:14:53.009Z,22.13
2023-09-27T00:17:19.735Z,19.95
2023-09-27T00:19:46.529Z,19.58
2023-09-27T00:22:13.252Z,20.42
2023-09-27T00:24:40.637Z,21.95
2023-09-27T00:27:08.211Z,20.05
2023-09-27T00:29:35.907Z,21.55
2023-09-27T00:32:02.755Z,21.00
2023-09-27T00:34:29.632Z,19.13
2023-09-27T00:36:56.628Z,20.00
2023-09-27T00:39:23.299Z,20.65
2023-09-27T00:41:49.969Z,19.25
2023-09-27T00:44:18.365Z,19.77
2023-09-27T00:46:45.318Z,19.90
2023-09-27T00:49:12.487Z,18.38
2023-09-27T00:51:39.189Z,19.17
2023-09-27T00:54:08.900Z,20.02
2023-09-27T00:56:35.881Z,20.63
2023-09-27T00:59:03.527Z,20.27
2023-09-27T01:01:30.773Z,19.42
2023-09-27T01:03:59.011Z,20.40
2023-09-27T01:06:26.680Z,20.67
2023-09-27T01:08:53.647Z,21.52
2023-09-27T01:11:20.693Z,22.63
2023-09-27T01:13:47.393Z,23.10
2023-09-27T01:16:14.082Z,20.65
2023-09-27T01:18:41.456Z,23.05
2023-09-27T01:21:08.165Z,21.45
2023-09-27T01:23:37.705Z,22.00
2023-09-27T01:26:05.024Z,21.52
2023-09-27T01:28:32.918Z,21.02
2023-09-27T01:30:59.675Z,22.58
2023-09-27T01:33:27.078Z,21.65
2023-09-27T01:35:55.373Z,22.88
2023-09-27T01:38:22.405Z,23.38
2023-09-27T01:40:49.182Z,20.98
2023-09-27T01:43:15.914Z,21.98
2023-09-27T01:45:43.970Z,22.92
2023-09-27T01:48:10.976Z,21.00
2023-09-27T01:50:37.768Z,23.15
2023-09-27T01:53:04.995Z,24.10
2023-09-27T01:55:32.645Z,21.80
2023-09-27T01:58:01.654Z,20.35
2023-09-27T02:00:28.384Z,19.48
2023-09-27T02:02:57.375Z,19.33
2023-09-27T02:05:25.101Z,19.10
2023-09-27T02:07:52.032Z,18.75
2023-09-27T02:10:19.188Z,18.83
2023-09-27T02:12:46.058Z,19.83
2023-09-27T02:15:14.718Z,20.00
2023-09-27T02:17:43.770Z,17.58
2023-09-27T02:20:12.647Z,19.13
2023-09-27T02:22:42.908Z,19.42
2023-09-27T02:25:13.989Z,18.33
2023-09-27T02:27:41.451Z,19.45
2023-09-27T02:30:12.735Z,18.95
2023-09-27T02:32:42.091Z,19.55
2023-09-27T02:35:12.870Z,19.77
2023-09-27T02:37:40.619Z,19.02
2023-09-27T02:40:14.715Z,18.38
2023-09-27T02:42:42.683Z,17.30
2023-09-27T02:45:10.461Z,18.42
2023-09-27T02:47:38.193Z,19.02
2023-09-27T02:50:06.363Z,16.40
2023-09-27T02:52:33.671Z,19.85
2023-09-27T02:55:00.649Z,19.85
2023-09-27T02:57:27.413Z,18.23
2023-09-27T02:59:54.370Z,19.05
2023-09-27T03:02:21.631Z,18.35
2023-09-27T03:04:48.864Z,20.08
2023-09-27T03:07:16.901Z,20.20
2023-09-27T03:09:49.982Z,19.08
2023-09-27T03:12:16.685Z,18.38
2023-09-27T03:14:44.875Z,19.90
2023-09-27T03:17:11.777Z,19.17
2023-09-27T03:19:38.477Z,19.77
2023-09-27T03:22:07.944Z,18.98
2023-09-27T03:24:35.517Z,18.75
2023-09-27T03:27:04.281Z,19.65
2023-09-27T03:29:39.283Z,17.40
2023-09-27T03:34:33.161Z,16.35
2023-09-27T03:36:59.883Z,19.13
2023-09-27T03:39:30.102Z,18.45
2023-09-27T03:41:57.805Z,19.95
2023-09-27T03:44:25.403Z,19.15
2023-09-27T03:46:52.263Z,19.70
2023-09-27T03:49:19.099Z,18.35
2023-09-27T03:51:45.959Z,18.98
2023-09-27T03:54:12.788Z,18.25
2023-09-27T03:56:39.482Z,18.60
2023-09-27T03:59:06.347Z,17.83
2023-09-27T04:01:33.199Z,18.75
2023-09-27T04:04:03.405Z,21.63
2023-09-27T04:06:30.122Z,19.35
2023-09-27T04:08:56.916Z,19.02
2023-09-27T04:11:23.579Z,18.60
2023-09-27T04:13:50.835Z,17.15
2023-09-27T04:16:17.599Z,17.17
2023-09-27T04:18:44.369Z,15.02
2023-09-27T04:21:12.312Z,16.63
2023-09-27T04:23:39.745Z,16.98
2023-09-27T04:26:06.942Z,17.13
2023-09-27T04:28:34.311Z,17.40
2023-09-27T04:31:01.831Z,20.33
2023-09-27T04:33:28.631Z,16.13
2023-09-27T04:35:55.387Z,16.85
2023-09-27T04:38:22.594Z,16.33
2023-09-27T04:40:52.820Z,16.20
2023-09-27T04:43:19.666Z,17.63
2023-09-27T04:45:46.665Z,15.40
2023-09-27T04:48:13.791Z,16.02
2023-09-27T04:50:41.338Z,16.08
2023-09-27T04:53:08.129Z,16.02
2023-09-27T04:55:35.304Z,14.95
2023-09-27T04:58:02.029Z,16.08
2023-09-27T05:00:28.741Z,16.40
2023-09-27T05:02:55.761Z,16.65
2023-09-27T05:05:22.469Z,15.57
2023-09-27T05:07:49.528Z,17.15
2023-09-27T05:10:16.826Z,15.07
2023-09-27T05:12:43.592Z,16.35
2023-09-27T05:15:10.897Z,15.10
2023-09-27T05:17:38.232Z,15.55
2023-09-27T05:20:13.474Z,16.30
2023-09-27T05:22:42.016Z,16.10
2023-09-27T05:25:09.594Z,15.65
2023-09-27T05:27:36.395Z,16.88
2023-09-27T05:30:04.954Z,15.60
2023-09-27T05:32:31.802Z,16.20
2023-09-27T05:34:58.825Z,17.83
2023-09-27T05:37:25.630Z,16.95
2023-09-27T05:39:52.732Z,15.95
2023-09-27T05:42:19.350Z,16.77
2023-09-27T05:44:46.848Z,15.93
2023-09-27T05:47:13.590Z,17.52
2023-09-27T05:49:40.922Z,17.58
2023-09-27T05:52:13.321Z,16.10
2023-09-27T05:54:40.521Z,17.85
2023-09-27T05:57:07.899Z,15.25
2023-09-27T05:59:35.082Z,14.75
2023-09-27T06:02:02.089Z,16.88
2023-09-27T06:04:28.768Z,17.77
2023-09-27T06:06:55.452Z,16.90
2023-09-27T06:09:34.400Z,16.67
2023-09-27T06:12:13.405Z,16.52
2023-09-27T06:14:40.290Z,16.98
2023-09-27T06:17:07.506Z,17.85
2023-09-27T06:19:35.021Z,17.55
2023-09-27T06:22:15.251Z,18.25
2023-09-27T06:24:42.259Z,17.02
2023-09-27T06:27:09.347Z,15.68
2023-09-27T06:29:36.066Z,15.40
2023-09-27T06:32:03.307Z,16.50
2023-09-27T06:34:30.269Z,16.60
2023-09-27T06:36:57.863Z,15.80
2023-09-27T06:39:27.646Z,15.77
2023-09-27T06:41:54.484Z,17.00
2023-09-27T06:44:21.279Z,16.25
2023-09-27T06:46:49.536Z,14.93
2023-09-27T06:49:18.163Z,17.58
2023-09-27T06:51:45.439Z,16.13
2023-09-27T06:54:12.357Z,16.27
2023-09-27T06:56:39.269Z,16.92
2023-09-27T06:59:07.018Z,16.20
2023-09-27T07:01:33.851Z,16.38
2023-09-27T07:04:04.824Z,16.23
2023-09-27T07:06:31.767Z,15.10
2023-09-27T07:08:59.295Z,15.48
2023-09-27T07:11:26.580Z,14.98
2023-09-27T07:13:53.621Z,15.18
2023-09-27T07:16:30.984Z,14.98
2023-09-27T07:19:01.190Z,14.52
2023-09-27T07:21:29.475Z,15.73
2023-09-27T07:23:59.523Z,15.95
2023-09-27T07:26:26.313Z,13.80
2023-09-27T07:28:53.391Z,14.52
2023-09-27T07:31:41.496Z,14.10
2023-09-27T07:34:08.282Z,14.32
2023-09-27T07:36:35.187Z,14.90
2023-09-27T07:39:07.237Z,14.85
2023-09-27T07:41:36.705Z,16.27
2023-09-27T07:44:06.208Z,15.05
2023-09-27T07:46:33.014Z,14.93
2023-09-27T07:49:01.733Z,15.38
2023-09-27T07:51:28.840Z,17.48
2023-09-27T07:54:25.686Z,15.27
2023-09-27T07:57:12.825Z,14.02
2023-09-27T07:59:39.863Z,13.85
2023-09-27T08:02:06.966Z,14.23
2023-09-27T08:04:33.774Z,13.15
2023-09-27T08:07:00.542Z,15.73
2023-09-27T08:09:40.599Z,14.30
2023-09-27T08:12:08.634Z,14.23
2023-09-27T08:14:38.441Z,14.25
2023-09-27T08:17:06.221Z,13.20
2023-09-27T08:19:33.922Z,13.30
2023-09-27T08:22:00.768Z,13.27
2023-09-27T08:24:27.548Z,14.15
2023-09-27T08:26:54.376Z,13.70
2023-09-27T08:29:22.838Z,13.25
2023-09-27T08:31:49.667Z,14.63
2023-09-27T08:34:17.584Z,13.52
2023-09-27T08:36:50.153Z,12.15
2023-09-27T08:39:19.435Z,12.27
2023-09-27T08:41:46.191Z,12.50
2023-09-27T08:44:13.249Z,13.10
2023-09-27T08:46:40.988Z,13.10
2023-09-27T08:49:10.083Z,12.32
2023-09-27T08:51:40.983Z,10.98
2023-09-27T08:54:10.906Z,11.55
2023-09-27T08:56:37.748Z,11.68
2023-09-27T08:59:06.232Z,11.18
2023-09-27T09:01:36.186Z,11.05
2023-09-27T09:04:03.942Z,11.60
2023-09-27T09:06:30.928Z,12.30
2023-09-27T09:08:57.977Z,12.95
2023-09-27T09:11:24.999Z,12.20
2023-09-27T09:14:06.432Z,11.75
2023-09-27T09:16:48.880Z,12.18
2023-09-27T09:19:41.729Z,11.45
2023-09-27T09:22:12.528Z,12.00
2023-09-27T09:24:44.983Z,11.07
2023-09-27T09:27:17.659Z,13.00
2023-09-27T09:29:49.846Z,12.52
2023-09-27T09:32:29.507Z,12.93
2023-09-27T09:34:56.780Z,14.13
2023-09-27T09:37:25.592Z,12.00
2023-09-27T09:39:54.138Z,11.77
2023-09-27T09:42:33.046Z,11.02
2023-09-27T09:45:13.058Z,11.85
2023-09-27T09:47:41.599Z,11.38
2023-09-27T09:50:10.121Z,11.90
2023-09-27T09:52:40.478Z,12.82
2023-09-27T09:55:22.733Z,13.25
2023-09-27T09:58:55.551Z,11.50
2023-09-27T10:01:23.647Z,13.93
2023-09-27T10:03:53.463Z,12.35
2023-09-27T10:06:32.538Z,11.95
2023-09-27T10:09:15.724Z,10.20
2023-09-27T10:11:44.424Z,10.30
2023-09-27T10:14:11.906Z,10.43
2023-09-27T10:16:39.193Z,11.18
2023-09-27T10:19:06.928Z,12.45
2023-09-27T10:21:34.003Z,10.60
2023-09-27T10:24:02.654Z,11.18
2023-09-27T10:26:30.207Z,11.57
2023-09-27T10:29:07.877Z,9.93
2023-09-27T10:31:39.475Z,10.13
2023-09-27T10:34:29.127Z,8.80
2023-09-27T10:37:10.479Z,9.27
2023-09-27T10:43:35.396Z,10.70
2023-09-27T10:46:05.785Z,10.38
2023-09-27T10:48:32.704Z,10.20
2023-09-27T10:50:59.828Z,9.63
2023-09-27T10:53:28.031Z,9.27
2023-09-27T10:55:54.921Z,9.18
2023-09-27T10:58:21.675Z,8.90
2023-09-27T11:00:58.893Z,9.70
2023-09-27T11:03:25.905Z,9.73
2023-09-27T11:05:52.932Z,10.45
2023-09-27T11:08:24.326Z,8.02
2023-09-27T11:10:54.539Z,8.90
2023-09-27T11:13:22.698Z,8.90
2023-09-27T11:15:49.676Z,10.10
2023-09-27T11:18:16.762Z,9.35
2023-09-27T11:20:44.056Z,10.23
2023-09-27T11:23:10.921Z,8.77
2023-09-27T11:25:39.250Z,9.20
2023-09-27T11:28:06.291Z,9.65
2023-09-27T11:30:35.788Z,9.82
2023-09-27T11:33:11.965Z,10.95
2023-09-27T11:35:47.628Z,9.38
2023-09-27T11:38:21.943Z,9.70
2023-09-27T11:40:50.047Z,10.20
2023-09-27T11:43:17.076Z,9.05
2023-09-27T11:45:45.024Z,8.70
2023-09-27T11:48:12.243Z,8.45
2023-09-27T11:50:41.910Z,9.35
2023-09-27T11:53:12.230Z,8.48
2023-09-27T11:55:39.262Z,8.95
2023-09-27T11:58:05.978Z,9.25
2023-09-27T12:00:33.417Z,8.20
2023-09-27T12:03:00.355Z,9.27
2023-09-27T12:05:28.347Z,9.23
2023-09-27T12:07:56.499Z,8.50
2023-09-27T12:10:23.684Z,8.57
2023-09-27T12:12:50.772Z,8.68
2023-09-27T12:15:17.710Z,10.63
2023-09-27T12:17:44.891Z,8.45
2023-09-27T12:20:26.657Z,8.57
2023-09-27T12:22:58.534Z,8.70
2023-09-27T12:25:28.620Z,8.07
2023-09-27T12:27:55.289Z,8.40
2023-09-27T12:30:22.106Z,7.93
2023-09-27T12:32:49.139Z,7.53
2023-09-27T12:35:16.061Z,7.55
2023-09-27T12:37:42.812Z,7.78
2023-09-27T12:40:10.245Z,7.57
2023-09-27T12:42:37.032Z,9.38
2023-09-27T12:45:06.719Z,8.07
2023-09-27T12:47:33.774Z,7.10
2023-09-27T12:50:04.626Z,7.68
2023-09-27T12:52:32.437Z,7.20
2023-09-27T12:55:02.365Z,7.28
2023-09-27T12:57:29.158Z,7.95
2023-09-27T12:59:57.149Z,7.20
2023-09-27T13:02:23.963Z,7.43
2023-09-27T13:04:50.691Z,8.23
2023-09-27T13:07:18.366Z,7.57
2023-09-27T13:09:45.837Z,7.20
2023-09-27T13:12:12.616Z,6.20
2023-09-27T13:14:39.344Z,7.35
2023-09-27T13:17:06.241Z,6.88
2023-09-27T13:19:33.095Z,8.05
2023-09-27T13:21:59.742Z,7.78
2023-09-27T13:24:26.552Z,8.38
2023-09-27T13:26:56.354Z,7.95
2023-09-27T13:29:23.315Z,7.05
2023-09-27T13:31:51.496Z,7.13
2023-09-27T13:34:18.521Z,6.97
2023-09-27T13:36:45.884Z,6.57
2023-09-27T13:39:20.275Z,5.85
2023-09-27T13:41:47.803Z,5.93
2023-09-27T13:44:15.002Z,4.93
2023-09-27T13:46:42.234Z,4.82
2023-09-27T13:49:09.918Z,5.15
2023-09-27T13:51:37.870Z,5.43
2023-09-27T13:54:08.799Z,6.85
2023-09-27T13:56:36.724Z,5.32
2023-09-27T13:59:05.080Z,5.50
2023-09-27T14:01:32.637Z,6.47
2023-09-27T14:04:00.393Z,5.57
2023-09-27T14:06:27.456Z,5.93
2023-09-27T14:08:54.579Z,5.57
2023-09-27T14:11:22.120Z,5.78
2023-09-27T14:13:49.156Z,6.68
2023-09-27T14:16:19.918Z,6.53
2023-09-27T14:18:46.844Z,7.22
2023-09-27T14:21:14.892Z,6.82
2023-09-27T14:23:44.163Z,6.60
2023-09-27T14:26:12.223Z,7.05
2023-09-27T14:28:39.153Z,5.80
2023-09-27T14:31:06.650Z,7.00
2023-09-27T14:36:04.290Z,6.28
2023-09-27T14:38:35.367Z,7.90
2023-09-27T14:41:08.433Z,6.80
2023-09-27T14:43:36.564Z,6.28
2023-09-27T14:46:03.388Z,12.63
2023-09-27T14:48:33.037Z,8.73
2023-09-27T14:50:59.838Z,9.40
2023-09-27T14:53:26.863Z,6.97
2023-09-27T14:55:53.695Z,6.70
2023-09-27T14:58:21.816Z,6.97
2023-09-27T15:00:48.987Z,6.95
2023-09-27T15:03:15.964Z,6.35
2023-09-27T15:05:42.883Z,7.22
2023-09-27T15:08:09.794Z,5.90
2023-09-27T15:10:36.666Z,6.50
2023-09-27T15:13:06.301Z,6.45
2023-09-27T15:15:33.189Z,6.40
2023-09-27T15:17:59.967Z,7.20
2023-09-27T15:20:26.652Z,8.23
2023-09-27T15:22:53.980Z,8.98
2023-09-27T15:25:21.942Z,7.57
2023-09-27T15:27:49.104Z,14.70
2023-09-27T15:30:19.014Z,9.00
2023-09-27T15:32:45.726Z,9.80
2023-09-27T15:35:13.468Z,8.85
2023-09-27T15:37:51.413Z,6.82
2023-09-27T15:40:18.284Z,7.35
2023-09-27T15:42:44.961Z,7.50
2023-09-27T15:45:11.843Z,6.80
2023-09-27T15:47:38.669Z,8.43
2023-09-27T15:50:06.190Z,7.65
2023-09-27T15:52:35.266Z,7.93
2023-09-27T15:55:06.203Z,8.57
2023-09-27T15:57:32.959Z,7.32
2023-09-27T15:59:59.828Z,6.57
2023-09-27T16:02:26.593Z,6.50
2023-09-27T16:04:54.966Z,5.93
2023-09-27T16:07:23.445Z,7.50
2023-09-27T16:09:50.245Z,6.95
2023-09-27T16:12:17.519Z,6.30
2023-09-27T16:14:44.305Z,6.82
2023-09-27T16:17:11.138Z,6.43
2023-09-27T16:19:38.248Z,5.88
2023-09-27T16:22:05.142Z,6.78
2023-09-27T16:24:32.001Z,6.22
2023-09-27T16:27:00.782Z,8.93
2023-09-27T16:29:27.461Z,6.30
2023-09-27T16:31:54.768Z,6.75
2023-09-27T16:34:21.835Z,6.20
2023-09-27T16:36:50.851Z,5.97
2023-09-27T16:39:17.784Z,6.22
2023-09-27T16:41:44.594Z,5.93
2023-09-27T16:44:11.441Z,6.18
2023-09-27T16:46:38.100Z,6.15
2023-09-27T16:49:05.246Z,6.53
2023-09-27T16:51:32.098Z,7.53
2023-09-27T16:53:58.963Z,5.95
2023-09-27T16:56:25.927Z,6.10
2023-09-27T16:58:52.705Z,6.13
2023-09-27T17:01:22.034Z,6.80
2023-09-27T17:03:49.700Z,6.55
2023-09-27T17:06:20.192Z,6.70
2023-09-27T17:08:48.461Z,6.85
2023-09-27T17:11:23.586Z,5.97
2023-09-27T17:13:51.386Z,6.05
2023-09-27T17:16:27.711Z,5.68
2023-09-27T17:18:55.056Z,6.75
2023-09-27T17:21:22.159Z,7.25
2023-09-27T17:23:50.063Z,6.88
2023-09-27T17:26:17.772Z,6.68
2023-09-27T17:28:44.613Z,7.18
2023-09-27T17:31:11.495Z,7.00
2023-09-27T17:33:38.675Z,6.43
2023-09-27T17:36:06.413Z,6.82
2023-09-27T17:38:33.251Z,6.43
2023-09-27T17:41:00.017Z,6.72
2023-09-27T17:43:26.903Z,7.10
2023-09-27T17:45:54.480Z,6.15
2023-09-27T17:48:22.211Z,5.80
2023-09-27T17:50:49.660Z,6.28
2023-09-27T17:53:19.209Z,7.95
2023-09-27T17:55:46.199Z,8.48
2023-09-27T17:58:13.073Z,5.20
2023-09-27T18:00:39.906Z,6.15
2023-09-27T18:03:07.067Z,6.00
2023-09-27T18:05:34.317Z,6.50
2023-09-27T18:08:01.251Z,5.68
2023-09-27T18:10:30.307Z,5.82
2023-09-27T18:12:57.451Z,5.13
2023-09-27T18:15:28.298Z,6.00
2023-09-27T18:17:56.104Z,7.00
2023-09-27T18:20:23.093Z,5.65
2023-09-27T18:22:49.946Z,5.38
2023-09-27T18:25:18.147Z,6.03
2023-09-27T18:27:45.050Z,5.88
2023-09-27T18:30:12.421Z,5.78
2023-09-27T18:32:39.258Z,6.43
2023-09-27T18:35:06.599Z,7.32
2023-09-27T18:37:34.151Z,7.63
2023-09-27T18:40:06.442Z,7.72
2023-09-27T18:42:33.411Z,7.18
2023-09-27T18:45:00.027Z,5.47
2023-09-27T18:47:26.989Z,6.65
2023-09-27T18:49:54.183Z,8.48
2023-09-27T18:52:21.039Z,5.95
2023-09-27T18:54:49.052Z,5.82
2023-09-27T18:57:15.824Z,6.75
2023-09-27T18:59:42.505Z,5.60
2023-09-27T19:02:09.245Z,6.10
2023-09-27T19:04:36.108Z,6.20
2023-09-27T19:07:02.908Z,6.03
2023-09-27T19:09:29.737Z,6.28
2023-09-27T19:11:56.905Z,6.65
2023-09-27T19:14:23.676Z,5.32
2023-09-27T19:16:51.000Z,5.82
2023-09-27T19:19:17.643Z,5.28
2023-09-27T19:21:44.461Z,5.90
2023-09-27T19:24:11.238Z,5.70
2023-09-27T19:26:39.601Z,6.40
2023-09-27T19:29:06.353Z,5.82
2023-09-27T19:31:33.354Z,6.03
2023-09-27T19:34:01.365Z,5.10
2023-09-27T19:36:28.177Z,4.90
2023-09-27T19:38:55.098Z,5.13
2023-09-27T19:41:22.059Z,4.68
2023-09-27T19:43:49.103Z,4.60
2023-09-27T19:46:20.644Z,4.50
2023-09-27T19:48:47.389Z,6.05
2023-09-27T19:51:27.497Z,4.57
2023-09-27T19:53:55.402Z,4.60
2023-09-27T19:56:22.882Z,5.20
2023-09-27T19:58:49.996Z,5.60
2023-09-27T20:01:32.536Z,5.97
2023-09-27T20:03:59.758Z,5.85
2023-09-27T20:06:26.896Z,6.15
2023-09-27T20:08:53.618Z,4.95
2023-09-27T20:11:20.921Z,5.85
2023-09-27T20:13:48.351Z,6.80
2023-09-27T20:16:15.919Z,7.10
2023-09-27T20:18:42.558Z,5.15
2023-09-27T20:21:09.294Z,5.00
2023-09-27T20:23:36.086Z,6.43
2023-09-27T20:26:03.294Z,6.43
2023-09-27T20:28:30.260Z,4.82
2023-09-27T20:30:57.072Z,5.68
2023-09-27T20:33:24.012Z,5.72
2023-09-27T20:35:50.935Z,6.28
2023-09-27T20:38:17.844Z,5.82
2023-09-27T20:40:44.760Z,6.88
2023-09-27T20:43:11.506Z,5.32
2023-09-27T20:45:38.521Z,6.45
2023-09-27T20:48:05.674Z,6.65
2023-09-27T20:50:32.637Z,6.93
2023-09-27T20:52:59.420Z,7.15
2023-09-27T20:55:26.285Z,6.63
2023-09-27T20:57:53.122Z,8.70
2023-09-27T21:00:23.808Z,7.35
2023-09-27T21:02:50.670Z,6.90
2023-09-27T21:05:17.601Z,6.40
2023-09-27T21:07:44.509Z,5.90
2023-09-27T21:10:11.432Z,6.10
2023-09-27T21:12:38.162Z,6.35
2023-09-27T21:15:05.542Z,6.35
2023-09-27T21:17:32.353Z,6.05
2023-09-27T21:19:59.267Z,6.50
2023-09-27T21:22:26.132Z,5.25
2023-09-27T21:24:53.035Z,5.80
2023-09-27T21:27:19.917Z,5.25
2023-09-27T21:29:47.052Z,5.55
2023-09-27T21:32:14.403Z,5.93
2023-09-27T21:34:41.933Z,5.78
2023-09-27T21:37:08.810Z,6.65
2023-09-27T21:39:36.693Z,6.35
2023-09-27T21:42:03.605Z,6.40
2023-09-27T21:44:34.477Z,6.07
2023-09-27T21:47:01.168Z,6.78
2023-09-27T21:49:28.055Z,6.50
2023-09-27T21:51:59.543Z,7.15
2023-09-27T21:54:30.062Z,6.15
2023-09-27T21:56:56.922Z,7.95
2023-09-27T21:59:23.762Z,7.03
2023-09-27T22:01:50.608Z,6.55
2023-09-27T22:04:17.706Z,6.95
2023-09-27T22:06:46.517Z,6.53
2023-09-27T22:09:13.560Z,8.98
2023-09-27T22:11:40.650Z,7.68
2023-09-27T22:14:08.000Z,7.05
2023-09-27T22:16:35.162Z,7.93
2023-09-27T22:19:02.422Z,7.88
2023-09-27T22:21:31.474Z,8.15
2023-09-27T22:24:12.554Z,8.18
2023-09-27T22:26:40.468Z,7.47
2023-09-27T22:29:10.711Z,7.72
2023-09-27T22:31:41.199Z,8.05
2023-09-27T22:34:26.098Z,8.00
2023-09-27T22:36:53.609Z,8.73
2023-09-27T22:39:20.909Z,8.63
2023-09-27T22:41:49.723Z,11.05
2023-09-27T22:44:23.814Z,7.07
2023-09-27T22:46:52.737Z,9.40
2023-09-27T22:49:21.049Z,8.40
2023-09-27T22:51:48.209Z,9.85
2023-09-27T22:54:16.065Z,7.82
2023-09-27T22:56:47.128Z,9.35
2023-09-27T22:59:14.806Z,9.05
2023-09-27T23:01:43.852Z,9.35
2023-09-27T23:04:16.011Z,10.10
2023-09-27T23:07:01.827Z,9.35
2023-09-27T23:09:35.571Z,9.43
2023-09-27T23:12:20.500Z,8.38
2023-09-27T23:15:06.902Z,8.70
2023-09-27T23:17:56.551Z,9.18
2023-09-27T23:20:30.062Z,9.75
2023-09-27T23:22:58.908Z,8.38
2023-09-27T23:25:44.547Z,9.60
2023-09-27T23:28:18.790Z,9.90
2023-09-27T23:30:51.421Z,9.40
2023-09-27T23:33:18.560Z,10.38
2023-09-27T23:35:45.710Z,10.02
2023-09-27T23:38:31.146Z,10.40
2023-09-27T23:41:01.949Z,10.35
2023-09-27T23:43:43.987Z,8.60
2023-09-27T23:46:24.631Z,9.18
2023-09-27T23:48:54.358Z,9.55
2023-09-27T23:51:21.556Z,10.20
2023-09-27T23:53:48.447Z,9.77
2023-09-27T23:56:16.862Z,10.75
2023-09-27T23:58:44.851Z,12.65
